首页
METAR-TAF:

METAR-TAF

机场 :

羅馬-菲烏米奇諾機場

罗马菲乌米奇诺, 意大利

纬度: 41-48N, 经度: 012-14E, 海拔: 2米

当前天气观测

该预报发布于23分钟前的00:50 UTC
风速3节,风向
温度 10°C
湿度 100%
气压 1028 hPa
能見度: 3000
碎片雾

METAR: LIRF 130050Z 08003KT 3000 BCFG NSC 10/10 Q1028 R16L/P1500 R16R/P1500 R25/0750 R34R/P1500 BECMG 1200

时间: 02:13 (01:13 UTC)

预报

该预报发布于2小时和13分钟前的23:00 UTC
预报有效从13日的 00点(UTC)到 14日的 06点(UTC)
风速5节,风向多变
能見度: 3000
少量云层高于1500英尺
轻雾
短暂存在
从 13日的 00点(UTC)到 13日的 07点(UTC)
能見度: 0800
碎片雾
成为
从 13日的 07点(UTC)到 13日的 09点(UTC)
能見度: 8000
成为
从 13日的 21点(UTC)到 13日的 23点(UTC)
能見度: 3000
轻雾
短暂存在
从 14日的 00点(UTC)到 14日的 06点(UTC)
能見度: 1200

TAF: LIRF 122300Z 1300/1406 VRB05KT 3000 BR FEW015 TEMPO 1300/1307 0800 BCFG BECMG 1307/1309 8000 BECMG 1321/1323 3000 BR TEMPO 1400/1406 1200

超过4000个机场的气象观测和天气预报(METAR&TAF报告)。

可查询的气象台以黄色和红色小点在地图上表示。

将鼠标移到小点上方,可查看气象台名称。

然后点击查看天气观测和预报。

如需切换地图:点击带黑十字的绿色按钮放大地图;点击带横线的绿色按钮缩小地图;或者点击绿色箭头查看邻近地区的地图。


METAR-TAF: